createdAt,value
2022-08-26T00:07:17.284Z,78
2022-08-26T00:17:17.776Z,79
2022-08-26T00:27:18.515Z,80
2022-08-26T00:37:19.408Z,80
2022-08-26T00:57:20.552Z,79
2022-08-26T01:07:20.765Z,80
2022-08-26T01:17:21.312Z,80
2022-08-26T01:37:22.535Z,81
2022-08-26T01:47:22.802Z,81
2022-08-26T01:57:23.863Z,83
2022-08-26T02:07:26.725Z,83
2022-08-26T02:17:25.059Z,84
2022-08-26T02:27:25.715Z,86
2022-08-26T02:47:26.421Z,87
2022-08-26T02:57:26.621Z,90
2022-08-26T03:07:27.146Z,92
2022-08-26T03:17:28.051Z,93
2022-08-26T03:27:28.722Z,94
2022-08-26T03:37:29.508Z,95
2022-08-26T03:47:29.773Z,96
2022-08-26T04:07:32.007Z,98
2022-08-26T04:17:31.840Z,98
2022-08-26T04:27:32.741Z,98
2022-08-26T04:37:33.467Z,98
2022-08-26T04:57:35.096Z,98
2022-08-26T05:07:35.579Z,98
2022-08-26T05:17:36.110Z,98
2022-08-26T05:37:37.308Z,96
2022-08-26T05:47:37.997Z,96
2022-08-26T05:57:40.543Z,96
2022-08-26T06:07:39.321Z,95
2022-08-26T06:17:39.777Z,95
2022-08-26T06:27:40.691Z,95
2022-08-26T06:47:42.095Z,93
2022-08-26T06:57:43.067Z,93
2022-08-26T07:17:44.210Z,91
2022-08-26T07:27:44.810Z,91
2022-08-26T07:37:45.813Z,91
2022-08-26T07:57:47.373Z,91
2022-08-26T08:17:50.367Z,90
2022-08-26T08:27:49.203Z,89
2022-08-26T08:37:49.411Z,90
2022-08-26T08:47:49.517Z,88
2022-08-26T08:57:50.248Z,87
2022-08-26T09:07:50.453Z,87
2022-08-26T09:17:50.721Z,86
2022-08-26T09:27:51.688Z,85
2022-08-26T09:57:53.748Z,84
2022-08-26T10:17:54.786Z,84
2022-08-26T10:27:55.801Z,83
2022-08-26T10:37:56.367Z,83
2022-08-26T10:47:56.819Z,82
2022-08-26T10:57:57.134Z,81
2022-08-26T11:07:57.472Z,81
2022-08-26T11:17:58.368Z,79
2022-08-26T11:27:59.350Z,78
2022-08-26T11:37:59.504Z,78
2022-08-26T11:48:00.306Z,78
2022-08-26T12:08:01.581Z,76
2022-08-26T12:18:02.577Z,78
2022-08-26T12:28:02.942Z,78
2022-08-26T12:38:03.830Z,77
2022-08-26T12:48:04.493Z,77
2022-08-26T13:08:05.720Z,76
2022-08-26T13:18:06.719Z,76
2022-08-26T13:38:07.567Z,76
2022-08-26T13:48:08.044Z,76
2022-08-26T14:18:10.032Z,76
2022-08-26T14:28:10.710Z,77
2022-08-26T14:48:12.701Z,77
2022-08-26T15:18:14.990Z,79
2022-08-26T16:08:18.154Z,82
2022-08-26T16:18:18.934Z,82
2022-08-26T16:28:25.000Z,81
2022-08-26T16:38:19.844Z,81
2022-08-26T16:48:20.551Z,81
2022-08-26T16:58:22.222Z,81
2022-08-26T17:08:24.439Z,81
2022-08-26T17:18:21.588Z,81
2022-08-26T17:28:21.906Z,81
2022-08-26T17:38:22.385Z,81
2022-08-26T17:48:22.950Z,81
2022-08-26T17:58:23.894Z,81
2022-08-26T18:08:24.541Z,82
2022-08-26T18:18:25.207Z,82
2022-08-26T18:28:26.060Z,83
2022-08-26T18:48:27.311Z,83
2022-08-26T18:58:28.314Z,84
2022-08-26T19:18:29.214Z,85
2022-08-26T19:28:30.297Z,86
2022-08-26T19:48:31.580Z,87
2022-08-26T19:58:32.346Z,89
2022-08-26T20:08:32.641Z,90
2022-08-26T20:18:32.806Z,91
2022-08-26T20:28:33.185Z,92
2022-08-26T20:38:33.526Z,93
2022-08-26T20:48:33.813Z,94
2022-08-26T20:58:34.293Z,94
2022-08-26T21:08:34.787Z,95
2022-08-26T21:18:34.928Z,96
2022-08-26T21:28:36.020Z,97
2022-08-26T21:38:36.763Z,99
2022-08-26T21:48:37.587Z,100
2022-08-26T21:58:37.900Z,100
2022-08-26T22:08:38.004Z,100
2022-08-26T22:18:38.753Z,100
2022-08-26T22:28:39.761Z,100
2022-08-26T22:38:40.689Z,100
2022-08-26T22:48:41.240Z,100
2022-08-26T22:58:42.050Z,100
2022-08-26T23:08:42.431Z,100
2022-08-26T23:18:43.028Z,100
2022-08-26T23:28:43.512Z,100
2022-08-26T23:38:43.726Z,100
2022-08-26T23:48:44.584Z,100
2022-08-26T23:58:47.147Z,100
